sensor_id;sensor_type;location;lat;lon;timestamp;P1;durP1;ratioP1;P2;durP2;ratioP2
75582;SDS011;64161;46.312;44.310;2022-10-16T00:01:10;3.58;;;1.45;;
75582;SDS011;64161;46.312;44.310;2022-10-16T00:03:39;3.45;;;1.52;;
75582;SDS011;64161;46.312;44.310;2022-10-16T00:06:07;4.47;;;1.90;;
75582;SDS011;64161;46.312;44.310;2022-10-16T00:08:34;4.50;;;1.60;;
75582;SDS011;64161;46.312;44.310;2022-10-16T00:11:02;5.10;;;1.58;;
75582;SDS011;64161;46.312;44.310;2022-10-16T00:13:30;3.97;;;1.23;;
75582;SDS011;64161;46.312;44.310;2022-10-16T00:15:59;2.92;;;1.33;;
75582;SDS011;64161;46.312;44.310;2022-10-16T00:18:26;2.47;;;1.38;;
75582;SDS011;64161;46.312;44.310;2022-10-16T00:20:53;6.78;;;1.75;;
75582;SDS011;64161;46.312;44.310;2022-10-16T00:23:21;2.78;;;1.20;;
75582;SDS011;64161;46.312;44.310;2022-10-16T00:25:56;7.50;;;2.03;;
75582;SDS011;64161;46.312;44.310;2022-10-16T00:28:24;4.70;;;1.95;;
75582;SDS011;64161;46.312;44.310;2022-10-16T00:30:51;1.83;;;0.68;;
75582;SDS011;64161;46.312;44.310;2022-10-16T00:33:17;6.25;;;2.25;;
75582;SDS011;64161;46.312;44.310;2022-10-16T00:35:44;3.45;;;1.63;;
75582;SDS011;64161;46.312;44.310;2022-10-16T00:38:10;2.85;;;1.55;;
75582;SDS011;64161;46.312;44.310;2022-10-16T00:40:37;3.78;;;1.42;;
75582;SDS011;64161;46.312;44.310;2022-10-16T00:43:07;2.20;;;0.90;;
75582;SDS011;64161;46.312;44.310;2022-10-16T00:45:39;3.92;;;1.85;;
75582;SDS011;64161;46.312;44.310;2022-10-16T00:48:06;2.95;;;1.17;;
75582;SDS011;64161;46.312;44.310;2022-10-16T00:50:37;2.88;;;1.27;;
75582;SDS011;64161;46.312;44.310;2022-10-16T00:53:06;4.07;;;1.92;;
75582;SDS011;64161;46.312;44.310;2022-10-16T00:55:33;7.63;;;1.98;;
75582;SDS011;64161;46.312;44.310;2022-10-16T00:57:59;4.22;;;1.90;;
75582;SDS011;64161;46.312;44.310;2022-10-16T01:00:26;4.80;;;1.80;;
75582;SDS011;64161;46.312;44.310;2022-10-16T01:02:57;1.77;;;0.90;;
75582;SDS011;64161;46.312;44.310;2022-10-16T01:05:28;3.83;;;1.65;;
75582;SDS011;64161;46.312;44.310;2022-10-16T01:08:04;3.33;;;1.33;;
75582;SDS011;64161;46.312;44.310;2022-10-16T01:10:44;4.25;;;1.77;;
75582;SDS011;64161;46.312;44.310;2022-10-16T01:13:38;2.30;;;1.15;;
75582;SDS011;64161;46.312;44.310;2022-10-16T01:16:11;3.25;;;1.40;;
75582;SDS011;64161;46.312;44.310;2022-10-16T01:18:49;5.70;;;1.73;;
75582;SDS011;64161;46.312;44.310;2022-10-16T01:21:24;3.47;;;1.52;;
75582;SDS011;64161;46.312;44.310;2022-10-16T01:30:07;4.38;;;2.15;;
75582;SDS011;64161;46.312;44.310;2022-10-16T01:37:37;3.83;;;2.03;;
75582;SDS011;64161;46.312;44.310;2022-10-16T01:40:10;3.13;;;1.73;;
75582;SDS011;64161;46.312;44.310;2022-10-16T01:42:42;4.45;;;2.20;;
75582;SDS011;64161;46.312;44.310;2022-10-16T01:45:14;2.83;;;1.55;;
75582;SDS011;64161;46.312;44.310;2022-10-16T01:50:11;4.22;;;1.73;;
75582;SDS011;64161;46.312;44.310;2022-10-16T01:52:58;3.50;;;1.40;;
75582;SDS011;64161;46.312;44.310;2022-10-16T01:55:27;3.47;;;1.50;;
75582;SDS011;64161;46.312;44.310;2022-10-16T01:57:58;4.32;;;1.65;;
75582;SDS011;64161;46.312;44.310;2022-10-16T02:00:27;4.05;;;1.77;;
75582;SDS011;64161;46.312;44.310;2022-10-16T02:02:55;1.05;;;0.50;;
75582;SDS011;64161;46.312;44.310;2022-10-16T02:08:17;3.70;;;1.73;;
75582;SDS011;64161;46.312;44.310;2022-10-16T02:10:44;1.98;;;1.02;;
75582;SDS011;64161;46.312;44.310;2022-10-16T02:15:39;4.13;;;2.20;;
75582;SDS011;64161;46.312;44.310;2022-10-16T02:18:05;3.50;;;1.02;;
75582;SDS011;64161;46.312;44.310;2022-10-16T02:20:36;4.03;;;1.80;;
75582;SDS011;64161;46.312;44.310;2022-10-16T02:23:36;4.40;;;1.98;;
75582;SDS011;64161;46.312;44.310;2022-10-16T02:26:12;4.07;;;2.03;;
75582;SDS011;64161;46.312;44.310;2022-10-16T02:28:45;7.10;;;2.47;;
75582;SDS011;64161;46.312;44.310;2022-10-16T02:31:20;7.43;;;3.38;;
75582;SDS011;64161;46.312;44.310;2022-10-16T02:33:54;6.95;;;2.65;;
75582;SDS011;64161;46.312;44.310;2022-10-16T02:38:51;6.50;;;2.67;;
75582;SDS011;64161;46.312;44.310;2022-10-16T02:41:20;5.07;;;2.53;;
75582;SDS011;64161;46.312;44.310;2022-10-16T02:43:47;4.43;;;2.42;;
75582;SDS011;64161;46.312;44.310;2022-10-16T02:46:14;3.42;;;1.77;;
75582;SDS011;64161;46.312;44.310;2022-10-16T02:48:42;5.22;;;2.80;;
75582;SDS011;64161;46.312;44.310;2022-10-16T02:51:09;4.95;;;2.47;;
75582;SDS011;64161;46.312;44.310;2022-10-16T02:53:35;5.60;;;2.53;;
75582;SDS011;64161;46.312;44.310;2022-10-16T02:56:01;4.40;;;2.55;;
75582;SDS011;64161;46.312;44.310;2022-10-16T02:58:27;4.90;;;2.50;;
75582;SDS011;64161;46.312;44.310;2022-10-16T03:00:54;4.32;;;2.17;;
75582;SDS011;64161;46.312;44.310;2022-10-16T03:03:21;6.70;;;2.78;;
75582;SDS011;64161;46.312;44.310;2022-10-16T03:05:47;5.38;;;2.50;;
75582;SDS011;64161;46.312;44.310;2022-10-16T03:08:14;5.00;;;3.00;;
75582;SDS011;64161;46.312;44.310;2022-10-16T03:10:40;7.28;;;3.10;;
75582;SDS011;64161;46.312;44.310;2022-10-16T03:13:06;6.38;;;2.80;;
75582;SDS011;64161;46.312;44.310;2022-10-16T03:15:32;5.00;;;2.70;;
75582;SDS011;64161;46.312;44.310;2022-10-16T03:17:59;4.78;;;2.65;;
75582;SDS011;64161;46.312;44.310;2022-10-16T03:20:26;4.13;;;2.25;;
75582;SDS011;64161;46.312;44.310;2022-10-16T03:22:52;4.43;;;2.13;;
75582;SDS011;64161;46.312;44.310;2022-10-16T03:25:18;3.53;;;2.03;;
75582;SDS011;64161;46.312;44.310;2022-10-16T03:27:45;6.07;;;2.70;;
75582;SDS011;64161;46.312;44.310;2022-10-16T03:30:11;4.70;;;2.33;;
75582;SDS011;64161;46.312;44.310;2022-10-16T03:32:38;5.20;;;2.65;;
75582;SDS011;64161;46.312;44.310;2022-10-16T03:35:04;7.53;;;3.88;;
75582;SDS011;64161;46.312;44.310;2022-10-16T03:37:31;6.00;;;2.47;;
75582;SDS011;64161;46.312;44.310;2022-10-16T03:39:57;6.50;;;3.30;;
75582;SDS011;64161;46.312;44.310;2022-10-16T03:42:24;6.03;;;2.92;;
75582;SDS011;64161;46.312;44.310;2022-10-16T03:44:51;4.25;;;2.55;;
75582;SDS011;64161;46.312;44.310;2022-10-16T03:47:17;5.20;;;2.60;;
75582;SDS011;64161;46.312;44.310;2022-10-16T03:49:47;5.07;;;2.65;;
75582;SDS011;64161;46.312;44.310;2022-10-16T03:52:14;3.45;;;2.17;;
75582;SDS011;64161;46.312;44.310;2022-10-16T03:54:40;4.18;;;2.28;;
75582;SDS011;64161;46.312;44.310;2022-10-16T03:57:07;3.83;;;2.03;;
75582;SDS011;64161;46.312;44.310;2022-10-16T03:59:33;7.80;;;3.03;;
75582;SDS011;64161;46.312;44.310;2022-10-16T04:01:59;3.67;;;2.03;;
75582;SDS011;64161;46.312;44.310;2022-10-16T04:04:26;5.60;;;2.35;;
75582;SDS011;64161;46.312;44.310;2022-10-16T04:06:52;4.20;;;2.30;;
75582;SDS011;64161;46.312;44.310;2022-10-16T04:09:19;5.05;;;2.45;;
75582;SDS011;64161;46.312;44.310;2022-10-16T04:11:45;5.13;;;2.28;;
75582;SDS011;64161;46.312;44.310;2022-10-16T04:14:11;4.03;;;1.80;;
75582;SDS011;64161;46.312;44.310;2022-10-16T04:16:38;3.70;;;1.33;;
75582;SDS011;64161;46.312;44.310;2022-10-16T04:19:04;6.03;;;2.83;;
75582;SDS011;64161;46.312;44.310;2022-10-16T04:21:30;3.65;;;1.85;;
75582;SDS011;64161;46.312;44.310;2022-10-16T04:23:57;4.07;;;2.15;;
75582;SDS011;64161;46.312;44.310;2022-10-16T04:26:23;4.25;;;2.08;;
75582;SDS011;64161;46.312;44.310;2022-10-16T04:28:49;5.03;;;2.33;;
75582;SDS011;64161;46.312;44.310;2022-10-16T04:31:16;5.35;;;2.08;;
75582;SDS011;64161;46.312;44.310;2022-10-16T04:33:42;3.63;;;1.88;;
75582;SDS011;64161;46.312;44.310;2022-10-16T04:36:09;3.70;;;1.70;;
75582;SDS011;64161;46.312;44.310;2022-10-16T04:38:36;2.65;;;1.33;;
75582;SDS011;64161;46.312;44.310;2022-10-16T04:41:03;5.88;;;2.08;;
75582;SDS011;64161;46.312;44.310;2022-10-16T04:43:30;3.13;;;1.27;;
75582;SDS011;64161;46.312;44.310;2022-10-16T04:45:56;5.07;;;2.25;;
75582;SDS011;64161;46.312;44.310;2022-10-16T04:48:22;3.03;;;1.60;;
75582;SDS011;64161;46.312;44.310;2022-10-16T04:50:49;2.83;;;1.40;;
75582;SDS011;64161;46.312;44.310;2022-10-16T04:53:15;4.47;;;2.22;;
75582;SDS011;64161;46.312;44.310;2022-10-16T04:55:42;4.43;;;1.55;;
75582;SDS011;64161;46.312;44.310;2022-10-16T04:58:09;2.95;;;1.33;;
75582;SDS011;64161;46.312;44.310;2022-10-16T05:00:36;4.22;;;2.47;;
75582;SDS011;64161;46.312;44.310;2022-10-16T05:03:03;5.43;;;1.98;;
75582;SDS011;64161;46.312;44.310;2022-10-16T05:05:33;4.50;;;2.20;;
75582;SDS011;64161;46.312;44.310;2022-10-16T05:08:00;5.22;;;1.60;;
75582;SDS011;64161;46.312;44.310;2022-10-16T05:10:27;3.22;;;1.45;;
75582;SDS011;64161;46.312;44.310;2022-10-16T05:12:54;3.88;;;1.90;;
75582;SDS011;64161;46.312;44.310;2022-10-16T05:15:20;4.68;;;1.35;;
75582;SDS011;64161;46.312;44.310;2022-10-16T05:17:46;2.80;;;1.77;;
75582;SDS011;64161;46.312;44.310;2022-10-16T05:20:13;5.03;;;1.90;;
75582;SDS011;64161;46.312;44.310;2022-10-16T05:22:39;2.95;;;1.45;;
75582;SDS011;64161;46.312;44.310;2022-10-16T05:25:06;3.88;;;1.80;;
75582;SDS011;64161;46.312;44.310;2022-10-16T05:27:32;7.88;;;2.10;;
75582;SDS011;64161;46.312;44.310;2022-10-16T05:29:59;22.75;;;2.10;;
75582;SDS011;64161;46.312;44.310;2022-10-16T05:32:25;3.42;;;1.70;;
75582;SDS011;64161;46.312;44.310;2022-10-16T05:34:51;3.97;;;2.20;;
75582;SDS011;64161;46.312;44.310;2022-10-16T05:37:18;2.78;;;1.60;;
75582;SDS011;64161;46.312;44.310;2022-10-16T05:39:44;2.85;;;1.67;;
75582;SDS011;64161;46.312;44.310;2022-10-16T05:42:10;3.22;;;1.45;;
75582;SDS011;64161;46.312;44.310;2022-10-16T05:44:37;5.22;;;1.98;;
75582;SDS011;64161;46.312;44.310;2022-10-16T05:47:03;4.10;;;1.60;;
75582;SDS011;64161;46.312;44.310;2022-10-16T05:49:29;4.15;;;2.20;;
75582;SDS011;64161;46.312;44.310;2022-10-16T05:51:56;3.42;;;1.80;;
75582;SDS011;64161;46.312;44.310;2022-10-16T05:54:22;4.38;;;1.90;;
75582;SDS011;64161;46.312;44.310;2022-10-16T05:57:06;3.78;;;1.65;;
75582;SDS011;64161;46.312;44.310;2022-10-16T05:59:33;2.30;;;1.27;;
75582;SDS011;64161;46.312;44.310;2022-10-16T06:01:59;3.35;;;1.50;;
75582;SDS011;64161;46.312;44.310;2022-10-16T06:04:26;3.92;;;1.98;;
75582;SDS011;64161;46.312;44.310;2022-10-16T06:06:52;4.75;;;1.73;;
75582;SDS011;64161;46.312;44.310;2022-10-16T06:09:19;4.25;;;1.30;;
75582;SDS011;64161;46.312;44.310;2022-10-16T06:11:45;4.85;;;1.50;;
75582;SDS011;64161;46.312;44.310;2022-10-16T06:14:12;4.10;;;1.75;;
75582;SDS011;64161;46.312;44.310;2022-10-16T06:16:38;3.78;;;1.52;;
75582;SDS011;64161;46.312;44.310;2022-10-16T06:19:05;2.63;;;1.35;;
75582;SDS011;64161;46.312;44.310;2022-10-16T06:21:33;3.80;;;1.60;;
75582;SDS011;64161;46.312;44.310;2022-10-16T06:24:00;3.35;;;1.35;;
75582;SDS011;64161;46.312;44.310;2022-10-16T06:26:28;2.53;;;1.30;;
75582;SDS011;64161;46.312;44.310;2022-10-16T06:28:56;5.75;;;1.25;;
75582;SDS011;64161;46.312;44.310;2022-10-16T06:31:24;3.92;;;1.10;;
75582;SDS011;64161;46.312;44.310;2022-10-16T06:33:53;5.80;;;1.20;;
75582;SDS011;64161;46.312;44.310;2022-10-16T06:36:20;3.83;;;1.42;;
75582;SDS011;64161;46.312;44.310;2022-10-16T06:38:47;2.67;;;1.20;;
75582;SDS011;64161;46.312;44.310;2022-10-16T06:41:15;4.93;;;1.23;;
75582;SDS011;64161;46.312;44.310;2022-10-16T06:43:43;5.40;;;1.40;;
75582;SDS011;64161;46.312;44.310;2022-10-16T06:46:11;2.42;;;1.10;;
75582;SDS011;64161;46.312;44.310;2022-10-16T06:48:38;1.75;;;0.85;;
75582;SDS011;64161;46.312;44.310;2022-10-16T06:51:06;4.22;;;1.45;;
75582;SDS011;64161;46.312;44.310;2022-10-16T06:53:41;2.50;;;1.20;;
75582;SDS011;64161;46.312;44.310;2022-10-16T06:56:18;3.40;;;1.15;;
75582;SDS011;64161;46.312;44.310;2022-10-16T06:58:47;2.88;;;1.25;;
75582;SDS011;64161;46.312;44.310;2022-10-16T07:01:14;2.53;;;0.95;;
75582;SDS011;64161;46.312;44.310;2022-10-16T07:03:42;2.63;;;1.33;;
75582;SDS011;64161;46.312;44.310;2022-10-16T07:06:10;3.15;;;0.95;;
75582;SDS011;64161;46.312;44.310;2022-10-16T07:08:56;6.18;;;1.35;;
75582;SDS011;64161;46.312;44.310;2022-10-16T07:11:23;4.18;;;1.20;;
75582;SDS011;64161;46.312;44.310;2022-10-16T07:13:50;2.50;;;1.23;;
75582;SDS011;64161;46.312;44.310;2022-10-16T07:16:18;2.75;;;1.23;;
75582;SDS011;64161;46.312;44.310;2022-10-16T07:18:46;2.33;;;1.08;;
75582;SDS011;64161;46.312;44.310;2022-10-16T07:21:15;2.95;;;1.20;;
75582;SDS011;64161;46.312;44.310;2022-10-16T07:23:43;6.30;;;0.77;;
75582;SDS011;64161;46.312;44.310;2022-10-16T07:26:10;4.15;;;1.15;;
75582;SDS011;64161;46.312;44.310;2022-10-16T07:28:37;5.93;;;0.90;;
75582;SDS011;64161;46.312;44.310;2022-10-16T07:31:10;3.17;;;0.82;;
75582;SDS011;64161;46.312;44.310;2022-10-16T07:33:39;1.92;;;0.80;;
75582;SDS011;64161;46.312;44.310;2022-10-16T07:36:07;2.85;;;0.88;;
75582;SDS011;64161;46.312;44.310;2022-10-16T07:38:33;2.78;;;0.90;;
75582;SDS011;64161;46.312;44.310;2022-10-16T07:41:01;2.35;;;1.00;;
75582;SDS011;64161;46.312;44.310;2022-10-16T07:43:29;3.78;;;1.05;;
75582;SDS011;64161;46.312;44.310;2022-10-16T07:45:58;3.63;;;0.90;;
75582;SDS011;64161;46.312;44.310;2022-10-16T07:48:26;1.92;;;0.88;;
75582;SDS011;64161;46.312;44.310;2022-10-16T07:51:17;1.25;;;0.57;;
75582;SDS011;64161;46.312;44.310;2022-10-16T07:53:45;2.72;;;1.10;;
75582;SDS011;64161;46.312;44.310;2022-10-16T07:56:12;7.45;;;1.15;;
75582;SDS011;64161;46.312;44.310;2022-10-16T07:58:39;2.00;;;0.80;;
75582;SDS011;64161;46.312;44.310;2022-10-16T08:01:06;1.70;;;0.75;;
75582;SDS011;64161;46.312;44.310;2022-10-16T08:03:34;1.30;;;0.52;;
75582;SDS011;64161;46.312;44.310;2022-10-16T08:06:01;3.35;;;0.70;;
75582;SDS011;64161;46.312;44.310;2022-10-16T08:08:29;1.95;;;0.80;;
75582;SDS011;64161;46.312;44.310;2022-10-16T08:10:56;3.53;;;0.63;;
75582;SDS011;64161;46.312;44.310;2022-10-16T08:13:22;2.15;;;0.77;;
75582;SDS011;64161;46.312;44.310;2022-10-16T08:15:48;4.03;;;1.10;;
75582;SDS011;64161;46.312;44.310;2022-10-16T08:18:15;2.67;;;0.85;;
75582;SDS011;64161;46.312;44.310;2022-10-16T08:20:41;5.15;;;1.02;;
75582;SDS011;64161;46.312;44.310;2022-10-16T08:23:11;2.05;;;0.82;;
75582;SDS011;64161;46.312;44.310;2022-10-16T08:25:39;1.63;;;0.60;;
75582;SDS011;64161;46.312;44.310;2022-10-16T08:28:06;2.78;;;0.80;;
75582;SDS011;64161;46.312;44.310;2022-10-16T08:30:35;1.67;;;0.80;;
75582;SDS011;64161;46.312;44.310;2022-10-16T08:33:01;3.20;;;0.60;;
75582;SDS011;64161;46.312;44.310;2022-10-16T08:35:28;2.63;;;0.68;;
75582;SDS011;64161;46.312;44.310;2022-10-16T08:37:54;1.88;;;0.70;;
75582;SDS011;64161;46.312;44.310;2022-10-16T08:48:49;1.67;;;0.70;;
75582;SDS011;64161;46.312;44.310;2022-10-16T08:51:36;2.92;;;0.60;;
75582;SDS011;64161;46.312;44.310;2022-10-16T08:54:03;1.83;;;0.70;;
75582;SDS011;64161;46.312;44.310;2022-10-16T08:56:32;1.50;;;0.70;;
75582;SDS011;64161;46.312;44.310;2022-10-16T08:58:59;2.28;;;0.70;;
75582;SDS011;64161;46.312;44.310;2022-10-16T09:01:32;6.07;;;0.80;;
75582;SDS011;64161;46.312;44.310;2022-10-16T09:07:02;2.28;;;0.70;;
75582;SDS011;64161;46.312;44.310;2022-10-16T09:09:46;2.00;;;0.60;;
75582;SDS011;64161;46.312;44.310;2022-10-16T09:18:14;3.30;;;0.60;;
75582;SDS011;64161;46.312;44.310;2022-10-16T09:21:03;1.10;;;0.50;;
75582;SDS011;64161;46.312;44.310;2022-10-16T09:23:26;1.25;;;0.60;;
75582;SDS011;64161;46.312;44.310;2022-10-16T09:26:00;1.30;;;0.55;;
75582;SDS011;64161;46.312;44.310;2022-10-16T09:28:27;1.90;;;0.60;;
75582;SDS011;64161;46.312;44.310;2022-10-16T09:30:53;1.45;;;0.65;;
75582;SDS011;64161;46.312;44.310;2022-10-16T09:33:21;2.08;;;0.60;;
75582;SDS011;64161;46.312;44.310;2022-10-16T09:35:52;1.00;;;0.40;;
75582;SDS011;64161;46.312;44.310;2022-10-16T09:38:29;1.90;;;0.60;;
75582;SDS011;64161;46.312;44.310;2022-10-16T09:43:56;1.95;;;0.70;;
75582;SDS011;64161;46.312;44.310;2022-10-16T09:46:43;2.42;;;0.80;;
75582;SDS011;64161;46.312;44.310;2022-10-16T09:52:13;2.42;;;0.82;;
75582;SDS011;64161;46.312;44.310;2022-10-16T09:54:53;2.60;;;0.70;;
75582;SDS011;64161;46.312;44.310;2022-10-16T09:57:21;4.55;;;0.93;;
75582;SDS011;64161;46.312;44.310;2022-10-16T09:59:49;2.78;;;0.70;;
75582;SDS011;64161;46.312;44.310;2022-10-16T10:02:38;2.83;;;1.33;;
75582;SDS011;64161;46.312;44.310;2022-10-16T10:05:05;2.95;;;0.90;;
75582;SDS011;64161;46.312;44.310;2022-10-16T10:07:43;3.15;;;0.90;;
75582;SDS011;64161;46.312;44.310;2022-10-16T10:10:23;2.38;;;0.90;;
75582;SDS011;64161;46.312;44.310;2022-10-16T10:12:54;2.00;;;0.90;;
75582;SDS011;64161;46.312;44.310;2022-10-16T10:15:21;2.10;;;0.95;;
75582;SDS011;64161;46.312;44.310;2022-10-16T10:17:56;3.88;;;0.90;;
75582;SDS011;64161;46.312;44.310;2022-10-16T10:20:25;2.75;;;0.90;;
75582;SDS011;64161;46.312;44.310;2022-10-16T10:22:54;2.03;;;0.75;;
75582;SDS011;64161;46.312;44.310;2022-10-16T10:37:14;3.20;;;1.15;;
75582;SDS011;64161;46.312;44.310;2022-10-16T10:48:20;2.05;;;0.82;;
75582;SDS011;64161;46.312;44.310;2022-10-16T10:55:12;2.25;;;0.93;;
75582;SDS011;64161;46.312;44.310;2022-10-16T10:57:36;2.67;;;0.80;;
75582;SDS011;64161;46.312;44.310;2022-10-16T11:03:19;2.58;;;1.00;;
75582;SDS011;64161;46.312;44.310;2022-10-16T11:11:58;1.05;;;0.55;;
75582;SDS011;64161;46.312;44.310;2022-10-16T11:14:48;3.35;;;0.80;;
75582;SDS011;64161;46.312;44.310;2022-10-16T11:17:38;1.70;;;0.65;;
75582;SDS011;64161;46.312;44.310;2022-10-16T11:20:24;1.70;;;0.70;;
75582;SDS011;64161;46.312;44.310;2022-10-16T11:22:58;1.75;;;0.68;;
75582;SDS011;64161;46.312;44.310;2022-10-16T11:25:31;1.45;;;0.65;;
75582;SDS011;64161;46.312;44.310;2022-10-16T11:28:11;1.70;;;0.73;;
75582;SDS011;64161;46.312;44.310;2022-10-16T11:30:43;1.63;;;0.68;;
75582;SDS011;64161;46.312;44.310;2022-10-16T11:33:20;3.17;;;0.85;;
75582;SDS011;64161;46.312;44.310;2022-10-16T11:36:19;1.33;;;0.50;;
75582;SDS011;64161;46.312;44.310;2022-10-16T11:39:14;2.65;;;0.77;;
75582;SDS011;64161;46.312;44.310;2022-10-16T11:41:50;1.83;;;0.73;;
75582;SDS011;64161;46.312;44.310;2022-10-16T11:44:45;1.55;;;0.65;;
75582;SDS011;64161;46.312;44.310;2022-10-16T11:47:36;1.98;;;0.68;;
75582;SDS011;64161;46.312;44.310;2022-10-16T11:53:04;1.88;;;0.75;;
75582;SDS011;64161;46.312;44.310;2022-10-16T11:55:38;1.98;;;0.88;;
75582;SDS011;64161;46.312;44.310;2022-10-16T12:03:34;1.77;;;0.65;;
75582;SDS011;64161;46.312;44.310;2022-10-16T12:08:45;2.55;;;0.50;;
75582;SDS011;64161;46.312;44.310;2022-10-16T12:23:04;1.83;;;0.60;;
75582;SDS011;64161;46.312;44.310;2022-10-16T12:28:00;2.00;;;0.80;;
75582;SDS011;64161;46.312;44.310;2022-10-16T12:31:06;2.00;;;0.70;;
75582;SDS011;64161;46.312;44.310;2022-10-16T12:33:36;2.97;;;0.70;;
75582;SDS011;64161;46.312;44.310;2022-10-16T12:36:26;4.05;;;0.60;;
75582;SDS011;64161;46.312;44.310;2022-10-16T12:39:02;2.47;;;0.60;;
75582;SDS011;64161;46.312;44.310;2022-10-16T12:41:32;1.83;;;0.82;;
75582;SDS011;64161;46.312;44.310;2022-10-16T12:44:00;1.88;;;0.63;;
75582;SDS011;64161;46.312;44.310;2022-10-16T12:49:05;1.42;;;0.57;;
75582;SDS011;64161;46.312;44.310;2022-10-16T12:51:46;3.65;;;0.70;;
75582;SDS011;64161;46.312;44.310;2022-10-16T12:54:34;1.13;;;0.55;;
75582;SDS011;64161;46.312;44.310;2022-10-16T12:59:57;3.30;;;0.70;;
75582;SDS011;64161;46.312;44.310;2022-10-16T13:02:51;2.35;;;0.50;;
75582;SDS011;64161;46.312;44.310;2022-10-16T13:13:59;2.00;;;0.50;;
75582;SDS011;64161;46.312;44.310;2022-10-16T13:19:23;1.60;;;0.77;;
75582;SDS011;64161;46.312;44.310;2022-10-16T13:22:23;3.42;;;0.60;;
75582;SDS011;64161;46.312;44.310;2022-10-16T13:27:49;2.20;;;0.80;;
75582;SDS011;64161;46.312;44.310;2022-10-16T13:30:26;3.25;;;0.80;;
75582;SDS011;64161;46.312;44.310;2022-10-16T13:33:39;1.73;;;0.60;;
75582;SDS011;64161;46.312;44.310;2022-10-16T13:35:48;1.65;;;0.60;;
75582;SDS011;64161;46.312;44.310;2022-10-16T13:38:17;1.15;;;0.40;;
75582;SDS011;64161;46.312;44.310;2022-10-16T13:40:56;1.85;;;0.68;;
75582;SDS011;64161;46.312;44.310;2022-10-16T13:43:49;1.55;;;0.70;;
75582;SDS011;64161;46.312;44.310;2022-10-16T13:46:19;0.95;;;0.45;;
75582;SDS011;64161;46.312;44.310;2022-10-16T13:48:59;1.33;;;0.60;;
75582;SDS011;64161;46.312;44.310;2022-10-16T13:51:32;2.30;;;0.47;;
75582;SDS011;64161;46.312;44.310;2022-10-16T13:53:58;3.53;;;0.82;;
75582;SDS011;64161;46.312;44.310;2022-10-16T13:56:27;3.30;;;0.70;;
75582;SDS011;64161;46.312;44.310;2022-10-16T13:59:24;2.03;;;0.63;;
75582;SDS011;64161;46.312;44.310;2022-10-16T14:01:53;3.25;;;0.70;;
75582;SDS011;64161;46.312;44.310;2022-10-16T14:04:22;1.33;;;0.45;;
75582;SDS011;64161;46.312;44.310;2022-10-16T14:06:50;2.40;;;0.60;;
75582;SDS011;64161;46.312;44.310;2022-10-16T14:09:24;2.58;;;0.70;;
75582;SDS011;64161;46.312;44.310;2022-10-16T14:11:56;1.85;;;0.70;;
75582;SDS011;64161;46.312;44.310;2022-10-16T14:14:38;2.50;;;0.85;;
75582;SDS011;64161;46.312;44.310;2022-10-16T14:17:43;1.10;;;0.45;;
75582;SDS011;64161;46.312;44.310;2022-10-16T14:20:02;0.93;;;0.50;;
75582;SDS011;64161;46.312;44.310;2022-10-16T14:22:32;2.03;;;0.60;;
75582;SDS011;64161;46.312;44.310;2022-10-16T14:31:00;1.10;;;0.50;;
75582;SDS011;64161;46.312;44.310;2022-10-16T14:38:25;2.83;;;0.80;;
75582;SDS011;64161;46.312;44.310;2022-10-16T14:40:51;2.38;;;0.77;;
75582;SDS011;64161;46.312;44.310;2022-10-16T14:43:21;1.65;;;0.60;;
75582;SDS011;64161;46.312;44.310;2022-10-16T14:45:52;2.38;;;0.73;;
75582;SDS011;64161;46.312;44.310;2022-10-16T14:48:21;1.85;;;0.70;;
75582;SDS011;64161;46.312;44.310;2022-10-16T14:50:48;2.65;;;0.70;;
75582;SDS011;64161;46.312;44.310;2022-10-16T14:53:15;2.72;;;0.68;;
75582;SDS011;64161;46.312;44.310;2022-10-16T14:55:42;2.75;;;0.60;;
75582;SDS011;64161;46.312;44.310;2022-10-16T14:58:21;2.22;;;0.70;;
75582;SDS011;64161;46.312;44.310;2022-10-16T15:00:50;2.92;;;0.88;;
75582;SDS011;64161;46.312;44.310;2022-10-16T15:03:16;1.38;;;0.60;;
75582;SDS011;64161;46.312;44.310;2022-10-16T15:05:42;2.60;;;0.77;;
75582;SDS011;64161;46.312;44.310;2022-10-16T15:08:09;1.50;;;0.50;;
75582;SDS011;64161;46.312;44.310;2022-10-16T15:10:38;2.22;;;0.73;;
75582;SDS011;64161;46.312;44.310;2022-10-16T15:13:05;6.10;;;1.08;;
75582;SDS011;64161;46.312;44.310;2022-10-16T15:15:33;3.78;;;0.80;;
75582;SDS011;64161;46.312;44.310;2022-10-16T15:18:02;1.27;;;0.50;;
75582;SDS011;64161;46.312;44.310;2022-10-16T15:20:31;1.67;;;0.80;;
75582;SDS011;64161;46.312;44.310;2022-10-16T15:23:00;2.03;;;0.70;;
75582;SDS011;64161;46.312;44.310;2022-10-16T15:25:32;1.75;;;0.40;;
75582;SDS011;64161;46.312;44.310;2022-10-16T15:28:01;1.83;;;0.70;;
75582;SDS011;64161;46.312;44.310;2022-10-16T15:30:28;4.38;;;0.60;;
75582;SDS011;64161;46.312;44.310;2022-10-16T15:32:55;1.52;;;0.70;;
75582;SDS011;64161;46.312;44.310;2022-10-16T15:35:21;1.38;;;0.55;;
75582;SDS011;64161;46.312;44.310;2022-10-16T15:37:48;0.90;;;0.40;;
75582;SDS011;64161;46.312;44.310;2022-10-16T15:40:15;2.50;;;0.70;;
75582;SDS011;64161;46.312;44.310;2022-10-16T15:42:42;1.50;;;0.43;;
75582;SDS011;64161;46.312;44.310;2022-10-16T15:45:10;0.57;;;0.28;;
75582;SDS011;64161;46.312;44.310;2022-10-16T15:47:37;1.08;;;0.50;;
75582;SDS011;64161;46.312;44.310;2022-10-16T15:50:04;1.70;;;0.60;;
75582;SDS011;64161;46.312;44.310;2022-10-16T15:52:31;1.85;;;0.70;;
75582;SDS011;64161;46.312;44.310;2022-10-16T15:54:58;1.65;;;0.60;;
75582;SDS011;64161;46.312;44.310;2022-10-16T15:57:24;2.22;;;0.73;;
75582;SDS011;64161;46.312;44.310;2022-10-16T15:59:53;2.08;;;0.70;;
75582;SDS011;64161;46.312;44.310;2022-10-16T16:02:19;0.98;;;0.40;;
75582;SDS011;64161;46.312;44.310;2022-10-16T16:04:45;2.17;;;0.85;;
75582;SDS011;64161;46.312;44.310;2022-10-16T16:07:12;2.30;;;0.45;;
75582;SDS011;64161;46.312;44.310;2022-10-16T16:09:39;1.25;;;0.50;;
75582;SDS011;64161;46.312;44.310;2022-10-16T16:12:06;1.35;;;0.50;;
75582;SDS011;64161;46.312;44.310;2022-10-16T16:14:32;0.88;;;0.45;;
75582;SDS011;64161;46.312;44.310;2022-10-16T16:17:00;2.33;;;0.73;;
75582;SDS011;64161;46.312;44.310;2022-10-16T16:19:27;1.83;;;0.75;;
75582;SDS011;64161;46.312;44.310;2022-10-16T16:21:53;1.67;;;0.63;;
75582;SDS011;64161;46.312;44.310;2022-10-16T16:24:20;1.90;;;0.70;;
75582;SDS011;64161;46.312;44.310;2022-10-16T16:26:46;2.17;;;0.70;;
75582;SDS011;64161;46.312;44.310;2022-10-16T16:29:13;0.82;;;0.40;;
75582;SDS011;64161;46.312;44.310;2022-10-16T16:31:41;0.88;;;0.40;;
75582;SDS011;64161;46.312;44.310;2022-10-16T16:34:08;0.60;;;0.30;;
75582;SDS011;64161;46.312;44.310;2022-10-16T16:36:35;1.42;;;0.50;;
75582;SDS011;64161;46.312;44.310;2022-10-16T16:39:02;2.00;;;0.80;;
75582;SDS011;64161;46.312;44.310;2022-10-16T16:41:29;1.88;;;0.70;;
75582;SDS011;64161;46.312;44.310;2022-10-16T16:44:00;1.27;;;0.50;;
75582;SDS011;64161;46.312;44.310;2022-10-16T16:46:50;2.67;;;0.70;;
75582;SDS011;64161;46.312;44.310;2022-10-16T16:49:17;2.50;;;0.63;;
75582;SDS011;64161;46.312;44.310;2022-10-16T16:51:43;2.17;;;0.90;;
75582;SDS011;64161;46.312;44.310;2022-10-16T16:54:10;3.75;;;0.63;;
75582;SDS011;64161;46.312;44.310;2022-10-16T16:56:38;3.55;;;0.57;;
75582;SDS011;64161;46.312;44.310;2022-10-16T16:59:12;3.65;;;1.00;;
75582;SDS011;64161;46.312;44.310;2022-10-16T17:01:40;1.55;;;0.60;;
75582;SDS011;64161;46.312;44.310;2022-10-16T17:04:07;2.58;;;0.70;;
75582;SDS011;64161;46.312;44.310;2022-10-16T17:06:34;1.83;;;0.57;;